»·PEaware :: N717TS KSBA-KHHR

N717TS :: KSBA-KHHR

FLIGHT INFORMATION

Flight Status: Arrived
Operator: Privately registered:
United States
More flights under this callsign
Pilot: Ty S. (2873)
Aircraft: SOCATA TBM-900
(TBM9)
More flights by this aircraft type
Origin: KSBA Santa Barbara Mun
United States
Destination: KHHR Northrop/Hawthorne Mun
United States
More flights between these airports :: More routes between these airports
Route: KWANG VTU V208 SXC SLI
File this flight plan on PilotEdge
Remarks:
Altitude:
(Current/Filed)
9,000ft
Speed:
(Current/Filed)
250kts
Departed: 09-Jan-20 10:39 AM
Arrived: 09-Jan-20 11:18 AM
Distance/Time
Traveled:
81nm/0:39
Distance/Time
To Go:
Arrived

Flight Plot

Page will automatically refresh every two minutes.


Map Options




Map Legend


Flown Route
Filed Route
Departure Airport
Arrival Airport
Navaid (VOR, NDB)
Fix

Horizontal Profiles

Position Reports

Time Latitude Longitude Heading Altitude Ground
Speed
09-Jan-20 10:22 34.431896 -119.837555 71 16ft 0kts
09-Jan-20 10:23 34.431896 -119.837555 71 16ft 0kts
09-Jan-20 10:24 34.431896 -119.837555 71 16ft 0kts
09-Jan-20 10:25 34.431896 -119.837555 71 16ft 0kts
09-Jan-20 10:26 34.431896 -119.837555 71 16ft 0kts
09-Jan-20 10:27 34.431909 -119.837509 71 16ft 0kts
09-Jan-20 10:28 34.431909 -119.837509 71 16ft 0kts
09-Jan-20 10:29 34.431909 -119.837509 71 16ft 0kts
09-Jan-20 10:30 34.431909 -119.837509 71 16ft 0kts
09-Jan-20 10:31 34.431909 -119.837509 71 16ft 0kts
09-Jan-20 10:32 34.431909 -119.837509 71 16ft 0kts
09-Jan-20 10:33 34.431909 -119.837509 71 16ft 0kts
09-Jan-20 10:34 34.431909 -119.837510 71 16ft 0kts
09-Jan-20 10:35 34.431783 -119.837337 153 16ft 3kts
09-Jan-20 10:36 34.431654 -119.835379 177 16ft 11kts
09-Jan-20 10:37 34.427941 -119.835460 240 16ft 15kts
09-Jan-20 10:38 34.427355 -119.868412 269 812ft 155kts
09-Jan-20 10:39 34.425992 -119.924216 269 2615ft 174kts
09-Jan-20 10:40 34.401741 -119.971884 160 4001ft 190kts
09-Jan-20 10:41 34.354701 -119.950514 152 6214ft 189kts
09-Jan-20 10:42 34.304050 -119.923110 124 8141ft 200kts
09-Jan-20 10:43 34.268205 -119.863410 119 9033ft 258kts
09-Jan-20 10:44 34.222309 -119.787895 120 9008ft 290kts
09-Jan-20 10:45 34.173627 -119.707876 120 9004ft 296kts
09-Jan-20 10:46 34.123967 -119.626435 121 9005ft 297kts
09-Jan-20 10:47 34.074253 -119.545081 122 9006ft 299kts
09-Jan-20 10:48 34.024457 -119.463821 122 9008ft 300kts
09-Jan-20 10:49 33.974232 -119.382012 122 9011ft 300kts
09-Jan-20 10:50 33.924263 -119.300796 123 9011ft 300kts
09-Jan-20 10:51 33.874718 -119.220455 123 9004ft 299kts
09-Jan-20 10:52 33.825053 -119.140093 123 9005ft 299kts
09-Jan-20 10:53 33.775136 -119.059498 123 9006ft 299kts
09-Jan-20 10:54 33.725278 -118.979120 123 9003ft 298kts
09-Jan-20 10:55 33.675626 -118.899276 125 8996ft 297kts
09-Jan-20 10:56 33.626252 -118.820052 127 8987ft 294kts
09-Jan-20 10:57 33.577324 -118.741859 128 8983ft 292kts
09-Jan-20 10:58 33.528656 -118.664144 128 8983ft 291kts
09-Jan-20 10:59 33.513405 -118.574665 81 7939ft 281kts
09-Jan-20 11:00 33.521033 -118.482471 81 6451ft 273kts
09-Jan-20 11:01 33.528294 -118.392900 81 5032ft 263kts
09-Jan-20 11:02 33.534727 -118.306456 81 5004ft 261kts
09-Jan-20 11:03 33.576614 -118.253208 33 4999ft 212kts
09-Jan-20 11:04 33.621373 -118.210464 35 4129ft 198kts
09-Jan-20 11:05 33.663689 -118.169856 36 3119ft 193kts
09-Jan-20 11:06 33.705377 -118.129775 36 2999ft 185kts
09-Jan-20 11:07 33.744904 -118.091750 36 2999ft 179kts
09-Jan-20 11:09 33.784397 -118.056291 10 2992ft 174kts
09-Jan-20 11:10 33.832185 -118.059914 357 3008ft 172kts
09-Jan-20 11:11 33.881084 -118.065028 357 3009ft 178kts
09-Jan-20 11:12 33.928742 -118.074217 318 2752ft 171kts
09-Jan-20 11:13 33.932243 -118.132519 269 2615ft 180kts
09-Jan-20 11:14 33.929034 -118.195884 269 1708ft 192kts
09-Jan-20 11:15 33.926821 -118.250449 270 1423ft 115kts
09-Jan-20 11:16 33.925071 -118.287815 267 770ft 109kts
09-Jan-20 11:17 33.923647 -118.319099 267 252ft 89kts
09-Jan-20 11:18 33.922553 -118.334459 173 68ft 2kts
09-Jan-20 11:19 33.922028 -118.334695 264 68ft 0kts

Navigation Log

Ident Type
Flight plan parsing failed, navigation log unavailable